sensor_id;sensor_type;location;lat;lon;timestamp;P1;durP1;ratioP1;P2;durP2;ratioP2
5688;SDS011;2869;50.432;8.680;2023-07-29T00:01:33;9.13;;;8.30;;
5688;SDS011;2869;50.432;8.680;2023-07-29T00:04:00;9.20;;;7.77;;
5688;SDS011;2869;50.432;8.680;2023-07-29T00:06:27;10.70;;;8.70;;
5688;SDS011;2869;50.432;8.680;2023-07-29T00:08:55;14.00;;;8.37;;
5688;SDS011;2869;50.432;8.680;2023-07-29T00:11:22;8.37;;;7.67;;
5688;SDS011;2869;50.432;8.680;2023-07-29T00:13:49;8.53;;;7.83;;
5688;SDS011;2869;50.432;8.680;2023-07-29T00:16:15;9.93;;;7.90;;
5688;SDS011;2869;50.432;8.680;2023-07-29T00:18:43;7.80;;;7.10;;
5688;SDS011;2869;50.432;8.680;2023-07-29T00:21:09;8.13;;;7.40;;
5688;SDS011;2869;50.432;8.680;2023-07-29T00:23:36;7.33;;;6.67;;
5688;SDS011;2869;50.432;8.680;2023-07-29T00:26:04;7.13;;;6.60;;
5688;SDS011;2869;50.432;8.680;2023-07-29T00:28:31;9.90;;;6.53;;
5688;SDS011;2869;50.432;8.680;2023-07-29T00:30:58;8.50;;;6.83;;
5688;SDS011;2869;50.432;8.680;2023-07-29T00:33:24;7.07;;;6.47;;
5688;SDS011;2869;50.432;8.680;2023-07-29T00:35:51;10.00;;;7.20;;
5688;SDS011;2869;50.432;8.680;2023-07-29T00:38:18;6.77;;;6.17;;
5688;SDS011;2869;50.432;8.680;2023-07-29T00:40:44;6.40;;;5.90;;
5688;SDS011;2869;50.432;8.680;2023-07-29T00:43:12;6.33;;;5.80;;
5688;SDS011;2869;50.432;8.680;2023-07-29T00:45:39;7.27;;;6.57;;
5688;SDS011;2869;50.432;8.680;2023-07-29T00:48:09;10.40;;;6.30;;
5688;SDS011;2869;50.432;8.680;2023-07-29T00:50:35;8.77;;;7.40;;
5688;SDS011;2869;50.432;8.680;2023-07-29T00:53:02;6.83;;;6.23;;
5688;SDS011;2869;50.432;8.680;2023-07-29T00:55:29;9.40;;;6.33;;
5688;SDS011;2869;50.432;8.680;2023-07-29T00:57:56;8.57;;;7.03;;
5688;SDS011;2869;50.432;8.680;2023-07-29T01:00:25;9.30;;;6.70;;
5688;SDS011;2869;50.432;8.680;2023-07-29T01:02:52;8.07;;;6.47;;
5688;SDS011;2869;50.432;8.680;2023-07-29T01:05:20;8.93;;;8.03;;
5688;SDS011;2869;50.432;8.680;2023-07-29T01:07:49;9.43;;;7.50;;
5688;SDS011;2869;50.432;8.680;2023-07-29T01:10:25;8.87;;;8.00;;
5688;SDS011;2869;50.432;8.680;2023-07-29T01:12:59;13.00;;;7.47;;
5688;SDS011;2869;50.432;8.680;2023-07-29T01:15:33;8.37;;;7.63;;
5688;SDS011;2869;50.432;8.680;2023-07-29T01:18:08;9.00;;;8.20;;
5688;SDS011;2869;50.432;8.680;2023-07-29T01:20:41;12.57;;;7.70;;
5688;SDS011;2869;50.432;8.680;2023-07-29T01:23:09;16.77;;;7.30;;
5688;SDS011;2869;50.432;8.680;2023-07-29T01:25:38;9.30;;;7.93;;
5688;SDS011;2869;50.432;8.680;2023-07-29T01:28:04;12.77;;;8.20;;
5688;SDS011;2869;50.432;8.680;2023-07-29T01:30:33;10.20;;;8.07;;
5688;SDS011;2869;50.432;8.680;2023-07-29T01:33:08;9.27;;;8.37;;
5688;SDS011;2869;50.432;8.680;2023-07-29T01:35:41;14.13;;;8.90;;
5688;SDS011;2869;50.432;8.680;2023-07-29T01:38:13;8.97;;;8.17;;
5688;SDS011;2869;50.432;8.680;2023-07-29T01:40:45;9.97;;;8.70;;
5688;SDS011;2869;50.432;8.680;2023-07-29T01:43:13;8.77;;;7.87;;
5688;SDS011;2869;50.432;8.680;2023-07-29T01:45:40;11.60;;;8.27;;
5688;SDS011;2869;50.432;8.680;2023-07-29T01:48:07;13.70;;;9.23;;
5688;SDS011;2869;50.432;8.680;2023-07-29T01:50:34;14.53;;;9.60;;
5688;SDS011;2869;50.432;8.680;2023-07-29T01:53:00;11.67;;;9.17;;
5688;SDS011;2869;50.432;8.680;2023-07-29T01:55:28;11.30;;;9.50;;
5688;SDS011;2869;50.432;8.680;2023-07-29T01:57:56;10.40;;;9.40;;
5688;SDS011;2869;50.432;8.680;2023-07-29T02:00:23;15.73;;;9.60;;
5688;SDS011;2869;50.432;8.680;2023-07-29T02:02:50;11.10;;;9.73;;
5688;SDS011;2869;50.432;8.680;2023-07-29T02:05:16;12.60;;;11.40;;
5688;SDS011;2869;50.432;8.680;2023-07-29T02:07:43;14.90;;;12.60;;
5688;SDS011;2869;50.432;8.680;2023-07-29T02:10:10;17.97;;;14.33;;
5688;SDS011;2869;50.432;8.680;2023-07-29T02:12:36;20.93;;;14.00;;
5688;SDS011;2869;50.432;8.680;2023-07-29T02:15:05;16.40;;;13.77;;
5688;SDS011;2869;50.432;8.680;2023-07-29T02:17:32;22.40;;;14.40;;
5688;SDS011;2869;50.432;8.680;2023-07-29T02:19:59;17.87;;;14.30;;
5688;SDS011;2869;50.432;8.680;2023-07-29T02:22:26;17.43;;;13.33;;
5688;SDS011;2869;50.432;8.680;2023-07-29T02:24:53;15.03;;;13.13;;
5688;SDS011;2869;50.432;8.680;2023-07-29T02:27:19;19.13;;;12.20;;
5688;SDS011;2869;50.432;8.680;2023-07-29T02:29:46;16.10;;;13.57;;
5688;SDS011;2869;50.432;8.680;2023-07-29T02:32:14;16.23;;;14.00;;
5688;SDS011;2869;50.432;8.680;2023-07-29T02:34:41;17.60;;;14.40;;
5688;SDS011;2869;50.432;8.680;2023-07-29T02:37:08;20.17;;;14.00;;
5688;SDS011;2869;50.432;8.680;2023-07-29T02:39:35;18.50;;;13.93;;
5688;SDS011;2869;50.432;8.680;2023-07-29T02:42:02;19.10;;;14.50;;
5688;SDS011;2869;50.432;8.680;2023-07-29T02:44:29;17.87;;;14.20;;
5688;SDS011;2869;50.432;8.680;2023-07-29T02:46:56;17.07;;;14.40;;
5688;SDS011;2869;50.432;8.680;2023-07-29T02:49:25;19.63;;;13.67;;
5688;SDS011;2869;50.432;8.680;2023-07-29T02:51:51;15.37;;;12.97;;
5688;SDS011;2869;50.432;8.680;2023-07-29T02:54:18;14.53;;;11.93;;
5688;SDS011;2869;50.432;8.680;2023-07-29T02:56:45;16.20;;;13.63;;
5688;SDS011;2869;50.432;8.680;2023-07-29T02:59:11;20.47;;;12.50;;
5688;SDS011;2869;50.432;8.680;2023-07-29T03:01:38;14.47;;;12.13;;
5688;SDS011;2869;50.432;8.680;2023-07-29T03:04:05;15.73;;;10.90;;
5688;SDS011;2869;50.432;8.680;2023-07-29T03:06:33;15.33;;;9.57;;
5688;SDS011;2869;50.432;8.680;2023-07-29T03:08:59;13.40;;;9.43;;
5688;SDS011;2869;50.432;8.680;2023-07-29T03:11:26;13.10;;;10.43;;
5688;SDS011;2869;50.432;8.680;2023-07-29T03:13:53;14.50;;;11.00;;
5688;SDS011;2869;50.432;8.680;2023-07-29T03:16:19;19.20;;;12.77;;
5688;SDS011;2869;50.432;8.680;2023-07-29T03:18:47;19.23;;;14.20;;
5688;SDS011;2869;50.432;8.680;2023-07-29T03:21:15;21.93;;;16.13;;
5688;SDS011;2869;50.432;8.680;2023-07-29T03:23:43;27.60;;;18.47;;
5688;SDS011;2869;50.432;8.680;2023-07-29T03:26:09;22.63;;;16.80;;
5688;SDS011;2869;50.432;8.680;2023-07-29T03:28:36;26.43;;;18.17;;
5688;SDS011;2869;50.432;8.680;2023-07-29T03:31:04;26.37;;;18.80;;
5688;SDS011;2869;50.432;8.680;2023-07-29T03:33:31;29.37;;;20.50;;
5688;SDS011;2869;50.432;8.680;2023-07-29T03:35:58;31.07;;;20.77;;
5688;SDS011;2869;50.432;8.680;2023-07-29T03:38:24;30.90;;;22.33;;
5688;SDS011;2869;50.432;8.680;2023-07-29T03:40:53;30.53;;;21.10;;
5688;SDS011;2869;50.432;8.680;2023-07-29T03:43:20;28.60;;;20.30;;
5688;SDS011;2869;50.432;8.680;2023-07-29T03:45:47;35.40;;;22.97;;
5688;SDS011;2869;50.432;8.680;2023-07-29T03:48:13;27.03;;;19.97;;
5688;SDS011;2869;50.432;8.680;2023-07-29T03:50:40;31.23;;;21.43;;
5688;SDS011;2869;50.432;8.680;2023-07-29T03:53:07;29.37;;;20.90;;
5688;SDS011;2869;50.432;8.680;2023-07-29T03:55:35;31.03;;;19.23;;
5688;SDS011;2869;50.432;8.680;2023-07-29T03:58:03;25.30;;;20.50;;
5688;SDS011;2869;50.432;8.680;2023-07-29T04:00:30;29.23;;;20.20;;
5688;SDS011;2869;50.432;8.680;2023-07-29T04:02:56;29.00;;;21.40;;
5688;SDS011;2869;50.432;8.680;2023-07-29T04:05:23;26.47;;;21.00;;
5688;SDS011;2869;50.432;8.680;2023-07-29T04:07:50;26.70;;;19.83;;
5688;SDS011;2869;50.432;8.680;2023-07-29T04:10:18;23.60;;;17.37;;
5688;SDS011;2869;50.432;8.680;2023-07-29T04:12:44;20.50;;;17.03;;
5688;SDS011;2869;50.432;8.680;2023-07-29T04:15:12;19.83;;;15.93;;
5688;SDS011;2869;50.432;8.680;2023-07-29T04:17:39;18.53;;;15.30;;
5688;SDS011;2869;50.432;8.680;2023-07-29T04:20:06;19.53;;;16.00;;
5688;SDS011;2869;50.432;8.680;2023-07-29T04:22:34;14.90;;;13.30;;
5688;SDS011;2869;50.432;8.680;2023-07-29T04:25:00;15.30;;;13.70;;
5688;SDS011;2869;50.432;8.680;2023-07-29T04:27:29;15.53;;;13.37;;
5688;SDS011;2869;50.432;8.680;2023-07-29T04:29:56;14.10;;;12.30;;
5688;SDS011;2869;50.432;8.680;2023-07-29T04:32:24;13.23;;;10.93;;
5688;SDS011;2869;50.432;8.680;2023-07-29T04:34:50;11.43;;;10.23;;
5688;SDS011;2869;50.432;8.680;2023-07-29T04:37:17;14.47;;;12.13;;
5688;SDS011;2869;50.432;8.680;2023-07-29T04:39:44;14.87;;;11.67;;
5688;SDS011;2869;50.432;8.680;2023-07-29T04:42:11;16.10;;;12.20;;
5688;SDS011;2869;50.432;8.680;2023-07-29T04:44:38;14.47;;;12.27;;
5688;SDS011;2869;50.432;8.680;2023-07-29T04:47:06;15.87;;;12.50;;
5688;SDS011;2869;50.432;8.680;2023-07-29T04:49:34;13.03;;;11.67;;
5688;SDS011;2869;50.432;8.680;2023-07-29T04:52:01;14.50;;;11.10;;
5688;SDS011;2869;50.432;8.680;2023-07-29T04:54:28;13.07;;;9.17;;
5688;SDS011;2869;50.432;8.680;2023-07-29T04:56:55;9.33;;;8.43;;
5688;SDS011;2869;50.432;8.680;2023-07-29T04:59:21;9.77;;;8.83;;
5688;SDS011;2869;50.432;8.680;2023-07-29T05:01:48;10.27;;;9.13;;
5688;SDS011;2869;50.432;8.680;2023-07-29T05:04:15;13.73;;;10.20;;
5688;SDS011;2869;50.432;8.680;2023-07-29T05:06:43;19.20;;;11.10;;
5688;SDS011;2869;50.432;8.680;2023-07-29T05:09:13;11.43;;;10.23;;
5688;SDS011;2869;50.432;8.680;2023-07-29T05:11:40;13.20;;;11.33;;
5688;SDS011;2869;50.432;8.680;2023-07-29T05:14:08;12.23;;;10.17;;
5688;SDS011;2869;50.432;8.680;2023-07-29T05:16:35;15.33;;;10.67;;
5688;SDS011;2869;50.432;8.680;2023-07-29T05:19:01;12.63;;;10.60;;
5688;SDS011;2869;50.432;8.680;2023-07-29T05:21:28;16.20;;;10.43;;
5688;SDS011;2869;50.432;8.680;2023-07-29T05:23:57;11.20;;;10.03;;
5688;SDS011;2869;50.432;8.680;2023-07-29T05:26:23;18.20;;;10.97;;
5688;SDS011;2869;50.432;8.680;2023-07-29T05:28:50;11.70;;;10.33;;
5688;SDS011;2869;50.432;8.680;2023-07-29T05:31:17;13.80;;;11.20;;
5688;SDS011;2869;50.432;8.680;2023-07-29T05:33:43;11.73;;;10.53;;
5688;SDS011;2869;50.432;8.680;2023-07-29T05:36:10;16.40;;;11.40;;
5688;SDS011;2869;50.432;8.680;2023-07-29T05:38:37;14.70;;;11.73;;
5688;SDS011;2869;50.432;8.680;2023-07-29T05:41:05;13.57;;;11.20;;
5688;SDS011;2869;50.432;8.680;2023-07-29T05:43:32;12.13;;;9.70;;
5688;SDS011;2869;50.432;8.680;2023-07-29T05:45:58;16.23;;;9.20;;
5688;SDS011;2869;50.432;8.680;2023-07-29T05:48:25;11.17;;;8.90;;
5688;SDS011;2869;50.432;8.680;2023-07-29T05:50:51;9.47;;;8.40;;
5688;SDS011;2869;50.432;8.680;2023-07-29T05:53:18;8.13;;;7.33;;
5688;SDS011;2869;50.432;8.680;2023-07-29T05:55:45;10.37;;;8.60;;
5688;SDS011;2869;50.432;8.680;2023-07-29T05:58:13;9.77;;;8.87;;
5688;SDS011;2869;50.432;8.680;2023-07-29T06:00:39;17.53;;;10.07;;
5688;SDS011;2869;50.432;8.680;2023-07-29T06:03:06;12.17;;;10.87;;
5688;SDS011;2869;50.432;8.680;2023-07-29T06:05:33;13.07;;;11.67;;
5688;SDS011;2869;50.432;8.680;2023-07-29T06:07:59;17.87;;;11.53;;
5688;SDS011;2869;50.432;8.680;2023-07-29T06:10:26;12.00;;;10.70;;
5688;SDS011;2869;50.432;8.680;2023-07-29T06:12:53;9.17;;;8.30;;
5688;SDS011;2869;50.432;8.680;2023-07-29T06:15:21;10.70;;;9.70;;
5688;SDS011;2869;50.432;8.680;2023-07-29T06:17:48;10.27;;;9.17;;
5688;SDS011;2869;50.432;8.680;2023-07-29T06:20:14;11.23;;;9.07;;
5688;SDS011;2869;50.432;8.680;2023-07-29T06:22:41;11.30;;;8.00;;
5688;SDS011;2869;50.432;8.680;2023-07-29T06:25:08;11.10;;;8.77;;
5688;SDS011;2869;50.432;8.680;2023-07-29T06:27:35;10.07;;;7.93;;
5688;SDS011;2869;50.432;8.680;2023-07-29T06:30:02;9.20;;;8.17;;
5688;SDS011;2869;50.432;8.680;2023-07-29T06:32:31;9.93;;;8.80;;
5688;SDS011;2869;50.432;8.680;2023-07-29T06:34:58;8.80;;;8.00;;
5688;SDS011;2869;50.432;8.680;2023-07-29T06:37:24;11.63;;;7.77;;
5688;SDS011;2869;50.432;8.680;2023-07-29T06:39:51;9.73;;;7.50;;
5688;SDS011;2869;50.432;8.680;2023-07-29T06:42:18;8.47;;;7.77;;
5688;SDS011;2869;50.432;8.680;2023-07-29T06:44:45;15.97;;;9.27;;
5688;SDS011;2869;50.432;8.680;2023-07-29T06:47:11;8.97;;;8.10;;
5688;SDS011;2869;50.432;8.680;2023-07-29T06:49:39;11.33;;;9.70;;
5688;SDS011;2869;50.432;8.680;2023-07-29T06:52:06;11.83;;;9.93;;
5688;SDS011;2869;50.432;8.680;2023-07-29T06:54:33;11.03;;;9.90;;
5688;SDS011;2869;50.432;8.680;2023-07-29T06:57:00;12.50;;;11.00;;
5688;SDS011;2869;50.432;8.680;2023-07-29T06:59:27;12.40;;;11.10;;
5688;SDS011;2869;50.432;8.680;2023-07-29T07:01:53;14.30;;;11.03;;
5688;SDS011;2869;50.432;8.680;2023-07-29T07:04:20;16.27;;;12.50;;
5688;SDS011;2869;50.432;8.680;2023-07-29T07:06:51;15.97;;;13.23;;
5688;SDS011;2869;50.432;8.680;2023-07-29T07:09:19;14.63;;;12.27;;
5688;SDS011;2869;50.432;8.680;2023-07-29T07:11:45;15.07;;;12.83;;
5688;SDS011;2869;50.432;8.680;2023-07-29T07:14:12;14.90;;;11.73;;
5688;SDS011;2869;50.432;8.680;2023-07-29T07:16:39;14.27;;;12.20;;
5688;SDS011;2869;50.432;8.680;2023-07-29T07:19:06;14.80;;;12.73;;
5688;SDS011;2869;50.432;8.680;2023-07-29T07:21:32;15.40;;;12.23;;
5688;SDS011;2869;50.432;8.680;2023-07-29T07:24:01;14.37;;;12.00;;
5688;SDS011;2869;50.432;8.680;2023-07-29T07:26:27;13.47;;;12.07;;
5688;SDS011;2869;50.432;8.680;2023-07-29T07:28:54;22.40;;;13.47;;
5688;SDS011;2869;50.432;8.680;2023-07-29T07:31:21;15.03;;;12.20;;
5688;SDS011;2869;50.432;8.680;2023-07-29T07:33:48;17.63;;;13.70;;
5688;SDS011;2869;50.432;8.680;2023-07-29T07:36:14;14.57;;;13.07;;
5688;SDS011;2869;50.432;8.680;2023-07-29T07:38:41;15.57;;;13.20;;
5688;SDS011;2869;50.432;8.680;2023-07-29T07:41:09;15.73;;;13.80;;
5688;SDS011;2869;50.432;8.680;2023-07-29T07:43:36;16.30;;;13.43;;
5688;SDS011;2869;50.432;8.680;2023-07-29T07:46:03;17.50;;;14.10;;
5688;SDS011;2869;50.432;8.680;2023-07-29T07:48:31;15.13;;;12.90;;
5688;SDS011;2869;50.432;8.680;2023-07-29T07:50:58;16.87;;;13.10;;
5688;SDS011;2869;50.432;8.680;2023-07-29T07:53:25;16.93;;;14.00;;
5688;SDS011;2869;50.432;8.680;2023-07-29T07:55:51;17.40;;;13.60;;
5688;SDS011;2869;50.432;8.680;2023-07-29T07:58:19;18.93;;;15.03;;
5688;SDS011;2869;50.432;8.680;2023-07-29T08:00:46;14.17;;;12.63;;
5688;SDS011;2869;50.432;8.680;2023-07-29T08:03:13;16.87;;;13.27;;
5688;SDS011;2869;50.432;8.680;2023-07-29T08:05:39;12.10;;;10.87;;
5688;SDS011;2869;50.432;8.680;2023-07-29T08:08:06;11.03;;;9.50;;
5688;SDS011;2869;50.432;8.680;2023-07-29T08:10:33;10.60;;;8.77;;
5688;SDS011;2869;50.432;8.680;2023-07-29T08:12:59;9.53;;;7.27;;
5688;SDS011;2869;50.432;8.680;2023-07-29T08:15:27;6.77;;;5.87;;
5688;SDS011;2869;50.432;8.680;2023-07-29T08:17:54;8.90;;;6.53;;
5688;SDS011;2869;50.432;8.680;2023-07-29T08:20:21;8.27;;;7.20;;
5688;SDS011;2869;50.432;8.680;2023-07-29T08:22:47;7.23;;;6.53;;
5688;SDS011;2869;50.432;8.680;2023-07-29T08:25:14;6.90;;;5.20;;
5688;SDS011;2869;50.432;8.680;2023-07-29T08:27:41;4.90;;;4.50;;
5688;SDS011;2869;50.432;8.680;2023-07-29T08:30:08;3.83;;;3.63;;
5688;SDS011;2869;50.432;8.680;2023-07-29T08:32:36;4.63;;;4.23;;
5688;SDS011;2869;50.432;8.680;2023-07-29T08:35:03;6.33;;;3.20;;
5688;SDS011;2869;50.432;8.680;2023-07-29T08:37:30;3.43;;;2.47;;
5688;SDS011;2869;50.432;8.680;2023-07-29T08:39:57;4.23;;;3.07;;
5688;SDS011;2869;50.432;8.680;2023-07-29T08:42:24;3.30;;;3.00;;
5688;SDS011;2869;50.432;8.680;2023-07-29T08:44:55;3.33;;;3.03;;
5688;SDS011;2869;50.432;8.680;2023-07-29T08:47:22;3.77;;;3.30;;
5688;SDS011;2869;50.432;8.680;2023-07-29T08:49:50;4.20;;;2.53;;
5688;SDS011;2869;50.432;8.680;2023-07-29T08:52:18;4.00;;;3.00;;
5688;SDS011;2869;50.432;8.680;2023-07-29T08:54:46;14.43;;;3.30;;
5688;SDS011;2869;50.432;8.680;2023-07-29T08:57:13;3.60;;;2.40;;
5688;SDS011;2869;50.432;8.680;2023-07-29T08:59:40;3.50;;;2.40;;
5688;SDS011;2869;50.432;8.680;2023-07-29T09:02:07;3.70;;;2.60;;
5688;SDS011;2869;50.432;8.680;2023-07-29T09:04:34;2.10;;;2.00;;
5688;SDS011;2869;50.432;8.680;2023-07-29T09:07:02;2.73;;;1.70;;
5688;SDS011;2869;50.432;8.680;2023-07-29T09:09:31;3.30;;;2.30;;
5688;SDS011;2869;50.432;8.680;2023-07-29T09:11:58;1.83;;;1.73;;
5688;SDS011;2869;50.432;8.680;2023-07-29T09:14:25;6.90;;;1.97;;
5688;SDS011;2869;50.432;8.680;2023-07-29T09:16:52;1.90;;;1.80;;
5688;SDS011;2869;50.432;8.680;2023-07-29T09:19:19;2.30;;;2.13;;
5688;SDS011;2869;50.432;8.680;2023-07-29T09:21:46;2.10;;;1.90;;
5688;SDS011;2869;50.432;8.680;2023-07-29T09:24:16;2.10;;;2.00;;
5688;SDS011;2869;50.432;8.680;2023-07-29T09:26:48;3.20;;;1.80;;
5688;SDS011;2869;50.432;8.680;2023-07-29T09:29:15;1.80;;;1.70;;
5688;SDS011;2869;50.432;8.680;2023-07-29T09:31:47;1.90;;;1.80;;
5688;SDS011;2869;50.432;8.680;2023-07-29T09:34:14;1.80;;;1.70;;
5688;SDS011;2869;50.432;8.680;2023-07-29T09:36:42;1.90;;;1.80;;
5688;SDS011;2869;50.432;8.680;2023-07-29T09:39:10;1.73;;;1.60;;
5688;SDS011;2869;50.432;8.680;2023-07-29T09:41:39;2.33;;;2.00;;
5688;SDS011;2869;50.432;8.680;2023-07-29T09:44:06;5.50;;;1.77;;
5688;SDS011;2869;50.432;8.680;2023-07-29T09:46:33;1.70;;;1.60;;
5688;SDS011;2869;50.432;8.680;2023-07-29T09:49:02;2.20;;;2.00;;
5688;SDS011;2869;50.432;8.680;2023-07-29T09:51:29;3.67;;;2.10;;
5688;SDS011;2869;50.432;8.680;2023-07-29T09:53:56;1.90;;;1.80;;
5688;SDS011;2869;50.432;8.680;2023-07-29T09:56:24;3.20;;;2.00;;
5688;SDS011;2869;50.432;8.680;2023-07-29T09:58:53;1.90;;;1.67;;
5688;SDS011;2869;50.432;8.680;2023-07-29T10:01:22;1.77;;;1.67;;
5688;SDS011;2869;50.432;8.680;2023-07-29T10:03:49;2.13;;;1.60;;
5688;SDS011;2869;50.432;8.680;2023-07-29T10:06:16;3.43;;;1.63;;
5688;SDS011;2869;50.432;8.680;2023-07-29T10:08:44;2.10;;;1.70;;
5688;SDS011;2869;50.432;8.680;2023-07-29T10:11:11;1.80;;;1.70;;
5688;SDS011;2869;50.432;8.680;2023-07-29T10:13:39;2.63;;;1.60;;
5688;SDS011;2869;50.432;8.680;2023-07-29T10:16:07;1.60;;;1.50;;
5688;SDS011;2869;50.432;8.680;2023-07-29T10:18:34;1.53;;;1.43;;
5688;SDS011;2869;50.432;8.680;2023-07-29T10:21:02;4.57;;;2.00;;
5688;SDS011;2869;50.432;8.680;2023-07-29T10:23:32;2.00;;;1.90;;
5688;SDS011;2869;50.432;8.680;2023-07-29T10:26:04;3.23;;;1.80;;
5688;SDS011;2869;50.432;8.680;2023-07-29T10:28:34;3.30;;;1.90;;
5688;SDS011;2869;50.432;8.680;2023-07-29T10:31:07;4.07;;;2.00;;
5688;SDS011;2869;50.432;8.680;2023-07-29T10:33:34;3.10;;;1.70;;
5688;SDS011;2869;50.432;8.680;2023-07-29T10:36:01;1.70;;;1.60;;
5688;SDS011;2869;50.432;8.680;2023-07-29T10:38:30;2.10;;;1.90;;
5688;SDS011;2869;50.432;8.680;2023-07-29T10:40:57;5.40;;;1.90;;
5688;SDS011;2869;50.432;8.680;2023-07-29T10:43:26;1.80;;;1.60;;
5688;SDS011;2869;50.432;8.680;2023-07-29T10:45:57;1.40;;;1.30;;
5688;SDS011;2869;50.432;8.680;2023-07-29T10:48:41;1.83;;;1.63;;
5688;SDS011;2869;50.432;8.680;2023-07-29T10:51:21;1.60;;;1.50;;
5688;SDS011;2869;50.432;8.680;2023-07-29T10:53:51;3.93;;;1.87;;
5688;SDS011;2869;50.432;8.680;2023-07-29T10:56:24;2.77;;;2.00;;
5688;SDS011;2869;50.432;8.680;2023-07-29T10:58:54;3.87;;;2.50;;
5688;SDS011;2869;50.432;8.680;2023-07-29T11:01:26;4.30;;;1.87;;
5688;SDS011;2869;50.432;8.680;2023-07-29T11:04:02;2.90;;;2.13;;
5688;SDS011;2869;50.432;8.680;2023-07-29T11:07:01;2.60;;;1.93;;
5688;SDS011;2869;50.432;8.680;2023-07-29T11:09:52;3.10;;;1.80;;
5688;SDS011;2869;50.432;8.680;2023-07-29T11:12:33;7.13;;;1.90;;
5688;SDS011;2869;50.432;8.680;2023-07-29T11:15:11;2.30;;;2.10;;
5688;SDS011;2869;50.432;8.680;2023-07-29T11:17:43;2.80;;;1.70;;
5688;SDS011;2869;50.432;8.680;2023-07-29T11:20:12;4.00;;;1.60;;
5688;SDS011;2869;50.432;8.680;2023-07-29T11:22:40;1.90;;;1.80;;
5688;SDS011;2869;50.432;8.680;2023-07-29T11:25:08;1.90;;;1.80;;
5688;SDS011;2869;50.432;8.680;2023-07-29T11:27:35;5.77;;;2.00;;
5688;SDS011;2869;50.432;8.680;2023-07-29T11:30:03;2.10;;;1.90;;
5688;SDS011;2869;50.432;8.680;2023-07-29T11:32:33;6.50;;;1.93;;
5688;SDS011;2869;50.432;8.680;2023-07-29T11:35:01;3.70;;;2.20;;
5688;SDS011;2869;50.432;8.680;2023-07-29T11:37:30;7.53;;;2.10;;
5688;SDS011;2869;50.432;8.680;2023-07-29T11:39:58;3.20;;;1.93;;
5688;SDS011;2869;50.432;8.680;2023-07-29T11:42:25;2.60;;;1.80;;
5688;SDS011;2869;50.432;8.680;2023-07-29T11:44:52;3.00;;;1.47;;
5688;SDS011;2869;50.432;8.680;2023-07-29T11:47:19;1.53;;;1.43;;
5688;SDS011;2869;50.432;8.680;2023-07-29T11:49:46;3.27;;;1.80;;
5688;SDS011;2869;50.432;8.680;2023-07-29T11:52:12;2.00;;;1.90;;
5688;SDS011;2869;50.432;8.680;2023-07-29T11:54:45;2.40;;;1.53;;
5688;SDS011;2869;50.432;8.680;2023-07-29T11:57:12;3.40;;;1.63;;
5688;SDS011;2869;50.432;8.680;2023-07-29T11:59:40;3.53;;;1.90;;
5688;SDS011;2869;50.432;8.680;2023-07-29T12:02:08;1.80;;;1.70;;
5688;SDS011;2869;50.432;8.680;2023-07-29T12:04:37;4.00;;;1.80;;
5688;SDS011;2869;50.432;8.680;2023-07-29T12:07:04;2.10;;;1.90;;
5688;SDS011;2869;50.432;8.680;2023-07-29T12:09:32;2.83;;;1.80;;
5688;SDS011;2869;50.432;8.680;2023-07-29T12:12:01;1.90;;;1.80;;
5688;SDS011;2869;50.432;8.680;2023-07-29T12:14:28;1.73;;;1.30;;
5688;SDS011;2869;50.432;8.680;2023-07-29T12:16:55;5.60;;;1.90;;
5688;SDS011;2869;50.432;8.680;2023-07-29T12:19:21;2.10;;;1.90;;
5688;SDS011;2869;50.432;8.680;2023-07-29T12:21:50;1.80;;;1.70;;
5688;SDS011;2869;50.432;8.680;2023-07-29T12:24:17;1.57;;;1.37;;
5688;SDS011;2869;50.432;8.680;2023-07-29T12:26:43;2.53;;;1.50;;
5688;SDS011;2869;50.432;8.680;2023-07-29T12:29:12;1.60;;;1.47;;
5688;SDS011;2869;50.432;8.680;2023-07-29T12:31:40;2.60;;;1.70;;
5688;SDS011;2869;50.432;8.680;2023-07-29T12:34:07;1.70;;;1.50;;
5688;SDS011;2869;50.432;8.680;2023-07-29T12:36:43;3.50;;;1.90;;
5688;SDS011;2869;50.432;8.680;2023-07-29T12:39:17;3.10;;;1.80;;
5688;SDS011;2869;50.432;8.680;2023-07-29T12:41:45;1.73;;;1.63;;
5688;SDS011;2869;50.432;8.680;2023-07-29T12:44:13;1.77;;;1.47;;
5688;SDS011;2869;50.432;8.680;2023-07-29T12:46:39;2.40;;;1.87;;
5688;SDS011;2869;50.432;8.680;2023-07-29T12:49:06;2.67;;;1.80;;
5688;SDS011;2869;50.432;8.680;2023-07-29T12:51:33;2.17;;;1.53;;
5688;SDS011;2869;50.432;8.680;2023-07-29T12:54:01;2.80;;;1.60;;
5688;SDS011;2869;50.432;8.680;2023-07-29T12:56:28;2.33;;;2.07;;
5688;SDS011;2869;50.432;8.680;2023-07-29T12:58:55;1.90;;;1.70;;
5688;SDS011;2869;50.432;8.680;2023-07-29T13:01:24;2.03;;;1.80;;
5688;SDS011;2869;50.432;8.680;2023-07-29T13:03:50;2.17;;;1.73;;
5688;SDS011;2869;50.432;8.680;2023-07-29T13:06:17;3.37;;;1.87;;
5688;SDS011;2869;50.432;8.680;2023-07-29T13:08:44;1.77;;;1.67;;
5688;SDS011;2869;50.432;8.680;2023-07-29T13:11:12;4.53;;;2.13;;
5688;SDS011;2869;50.432;8.680;2023-07-29T13:13:39;2.57;;;2.20;;
5688;SDS011;2869;50.432;8.680;2023-07-29T13:16:05;2.30;;;2.07;;
5688;SDS011;2869;50.432;8.680;2023-07-29T13:18:33;2.37;;;2.00;;
5688;SDS011;2869;50.432;8.680;2023-07-29T13:21:00;2.13;;;1.93;;
5688;SDS011;2869;50.432;8.680;2023-07-29T13:23:27;2.10;;;1.90;;
5688;SDS011;2869;50.432;8.680;2023-07-29T13:25:54;3.80;;;2.00;;
5688;SDS011;2869;50.432;8.680;2023-07-29T13:28:21;1.80;;;1.70;;
5688;SDS011;2869;50.432;8.680;2023-07-29T13:30:48;2.50;;;2.03;;
5688;SDS011;2869;50.432;8.680;2023-07-29T13:33:14;2.63;;;2.23;;
5688;SDS011;2869;50.432;8.680;2023-07-29T13:35:43;1.83;;;1.73;;
5688;SDS011;2869;50.432;8.680;2023-07-29T13:38:09;1.60;;;1.50;;
5688;SDS011;2869;50.432;8.680;2023-07-29T13:40:37;3.63;;;1.77;;
5688;SDS011;2869;50.432;8.680;2023-07-29T13:43:03;2.23;;;2.03;;
5688;SDS011;2869;50.432;8.680;2023-07-29T13:45:30;1.87;;;1.60;;
5688;SDS011;2869;50.432;8.680;2023-07-29T13:47:57;1.70;;;1.60;;
5688;SDS011;2869;50.432;8.680;2023-07-29T13:50:23;3.40;;;1.90;;
5688;SDS011;2869;50.432;8.680;2023-07-29T13:52:51;1.70;;;1.60;;
5688;SDS011;2869;50.432;8.680;2023-07-29T13:55:18;1.97;;;1.80;;
5688;SDS011;2869;50.432;8.680;2023-07-29T13:57:45;1.80;;;1.70;;
5688;SDS011;2869;50.432;8.680;2023-07-29T14:00:12;3.10;;;2.13;;
5688;SDS011;2869;50.432;8.680;2023-07-29T14:02:39;3.67;;;2.40;;
5688;SDS011;2869;50.432;8.680;2023-07-29T14:05:07;3.13;;;2.23;;
5688;SDS011;2869;50.432;8.680;2023-07-29T14:07:34;5.00;;;2.00;;
5688;SDS011;2869;50.432;8.680;2023-07-29T14:10:02;2.57;;;2.27;;
5688;SDS011;2869;50.432;8.680;2023-07-29T14:12:29;2.60;;;2.40;;
5688;SDS011;2869;50.432;8.680;2023-07-29T14:14:56;2.23;;;1.70;;
5688;SDS011;2869;50.432;8.680;2023-07-29T14:17:23;2.10;;;2.00;;
5688;SDS011;2869;50.432;8.680;2023-07-29T14:19:49;7.27;;;2.00;;
5688;SDS011;2869;50.432;8.680;2023-07-29T14:22:16;3.73;;;1.90;;
5688;SDS011;2869;50.432;8.680;2023-07-29T14:24:43;2.83;;;2.00;;
5688;SDS011;2869;50.432;8.680;2023-07-29T14:27:11;2.37;;;2.10;;
5688;SDS011;2869;50.432;8.680;2023-07-29T14:29:37;3.73;;;1.93;;
5688;SDS011;2869;50.432;8.680;2023-07-29T14:32:04;2.30;;;2.10;;
5688;SDS011;2869;50.432;8.680;2023-07-29T14:34:31;9.53;;;2.63;;
5688;SDS011;2869;50.432;8.680;2023-07-29T14:36:58;2.53;;;2.33;;
5688;SDS011;2869;50.432;8.680;2023-07-29T14:39:24;2.30;;;2.10;;
5688;SDS011;2869;50.432;8.680;2023-07-29T14:41:51;2.30;;;1.93;;
5688;SDS011;2869;50.432;8.680;2023-07-29T14:44:19;2.50;;;2.30;;
5688;SDS011;2869;50.432;8.680;2023-07-29T14:46:46;3.43;;;2.30;;
5688;SDS011;2869;50.432;8.680;2023-07-29T14:49:13;2.47;;;2.27;;
5688;SDS011;2869;50.432;8.680;2023-07-29T14:51:39;5.47;;;2.37;;
5688;SDS011;2869;50.432;8.680;2023-07-29T14:54:06;2.50;;;2.30;;
5688;SDS011;2869;50.432;8.680;2023-07-29T14:56:33;2.40;;;2.27;;
5688;SDS011;2869;50.432;8.680;2023-07-29T14:58:59;3.83;;;2.60;;
5688;SDS011;2869;50.432;8.680;2023-07-29T15:01:27;2.30;;;2.00;;
5688;SDS011;2869;50.432;8.680;2023-07-29T15:03:54;2.63;;;2.53;;
5688;SDS011;2869;50.432;8.680;2023-07-29T15:06:20;3.70;;;2.57;;
5688;SDS011;2869;50.432;8.680;2023-07-29T15:08:47;1.80;;;1.70;;